KFFL

Fairfield Municipal Airport

Fairfield, Iowa, USA
METAR KFFL 141335Z AUTO 15004KT 10SM CLR 23/18 A2997 RMK AO2 PWINO
Observed Flight Rules
Aug-14 @ 13:35 UTC (9 minutes ago) Visual Flight Rules
Wind Visibility Clouds
150° at 4 knots 10 miles
  • Clear skies
Temperatures Readings
Current 23°C / 73°F
Dewpoint 18°C / 64°F
Humidity 74%
Altimeter 29.97" Hg
Pressure 1015 hPa
Elevation 244
METAR KFFL 141335Z AUTO 15004KT 10SM CLR 23/18 A2997 RMK AO2 PWINO
Observed Flight Rules
Aug-14 @ 13:35 UTC
(9 minutes ago)
VFR
Wind Visibility
150° at 4 knots 10 miles
Clouds
  • Clear skies
Temperature Dewpoint
23°C / 73°F 18°C / 64°F
Humidity Altimeter Pressure
74% 29.97" Hg 1015 hPa